Time;durP1;ratioP1;P1;durP2;ratioP2;P2;SDS_P1;SDS_P2;PMS_P1;PMS_P2;Temp;Humidity;BMP_temperature;BMP_pressure;BME280_temperature;BME280_humidity;BME280_pressure;Samples;Min_cycle;Max_cycle;Signal;HPM_P1;HPM_P2
2024/02/07 00:02:48;;;;;;;16.30;1.35;;;;;;;4.88;100.00;99109.44;5030119;28;20076;-87
2024/02/07 00:05:57;;;;;;;10.95;1.05;;;6.30;99.90;;;4.84;100.00;99094.03;5017010;28;20041;-87
2024/02/07 00:09:40;;;;;;;15.25;1.45;;;6.30;99.90;;;4.82;100.00;99093.25;4944061;28;20511;-87
2024/02/07 00:12:09;;;;;;;16.65;1.25;;;;;;;4.76;100.00;99101.38;4903958;29;20099;-87
2024/02/07 00:15:29;;;;;;;12.02;0.93;;;6.20;99.90;;;4.75;100.00;99102.28;4897417;29;20201;-87
2024/02/07 00:18:01;;;;;;;7.57;1.63;;;;;;;4.70;100.00;99103.34;4884578;29;20487;-87
2024/02/07 00:20:40;;;;;;;15.13;1.20;;;6.20;99.90;;;4.67;100.00;99098.28;4912443;29;20044;-87
2024/02/07 00:23:21;;;;;;;15.50;1.38;;;;;;;4.66;100.00;99098.34;4895468;29;20059;-87
2024/02/07 00:29:39;;;;;;;12.60;1.73;;;6.00;99.90;;;4.57;100.00;99088.38;4912146;29;20092;-87
2024/02/07 00:36:22;;;;;;;16.23;1.23;;;;;;;4.50;100.00;99095.66;4879504;29;20396;-87
2024/02/07 00:38:48;;;;;;;10.20;1.10;;;;;;;4.49;100.00;99094.81;4876804;29;20056;-87
2024/02/07 00:41:57;;;;;;;14.80;1.55;;;6.00;99.90;;;4.49;100.00;99083.53;4879942;29;20511;-87
2024/02/07 00:51:49;;;;;;;17.30;2.28;;;5.90;99.90;;;4.47;100.00;99075.78;4907103;29;20065;-87
2024/02/07 00:54:30;;;;;;;17.35;1.90;;;;;;;4.45;100.00;99075.03;4896860;29;20041;-87
2024/02/07 00:57:08;;;;;;;14.73;1.45;;;;;;;4.45;100.00;99064.59;4891367;29;20752;-87
2024/02/07 00:59:34;;;;;;;24.40;1.67;;;;;;;4.46;100.00;99068.88;4881294;29;20139;-87
2024/02/07 01:02:10;;;;;;;;;;;;;;;;;;;;;
2024/02/07 01:04:40;;;;;;;17.75;1.85;;;;;;;4.48;100.00;99066.22;4973306;28;20081;-88
2024/02/07 01:07:51;;;;;;;24.15;2.55;;;5.90;99.90;;;4.51;100.00;99076.47;4973491;28;20030;-87
2024/02/07 01:11:02;;;;;;;16.83;2.33;;;5.90;99.90;;;4.52;100.00;99072.97;4974395;28;20124;-88
2024/02/07 01:13:29;;;;;;;19.83;1.92;;;;;;;4.52;100.00;99063.38;4983652;28;20038;-88
2024/02/07 01:16:56;;;;;;;16.40;1.83;;;6.00;99.90;;;4.54;100.00;99063.31;4982911;28;20039;-88
2024/02/07 01:22:27;;;;;;;18.40;1.90;;;;;;;4.51;100.00;99066.91;5059506;23;20069;-88
2024/02/07 01:25:09;;;;;;;19.75;1.90;;;5.90;99.90;;;4.52;100.00;99065.16;5017002;28;20041;-87
2024/02/07 01:27:47;;;;;;;;;;;;;;;;;;;;;
2024/02/07 01:30:17;;;;;;;19.45;1.85;;;;;;;4.49;100.00;99057.47;5015345;28;20052;-87
2024/02/07 01:37:29;;;;;;;23.92;2.05;;;5.90;99.90;;;4.46;100.00;99063.66;5013415;28;20057;-87
2024/02/07 01:42:32;;;;;;;17.15;2.05;;;;;;;4.43;100.00;99060.38;5090398;23;20424;-87
2024/02/07 01:52:41;;;;;;;28.70;2.42;;;5.90;99.90;;;4.37;100.00;99053.69;5036250;28;20125;-87
2024/02/07 01:55:20;;;;;;;22.60;2.17;;;;;;;4.36;100.00;99058.97;4945042;29;20074;-87
2024/02/07 01:58:00;;;;;;;26.08;2.83;;;;;;;4.37;100.00;99061.50;4935231;29;20024;-87
2024/02/07 02:00:38;;;;;;;34.40;2.58;;;;;;;4.39;100.00;99061.44;5017659;23;20025;-87
2024/02/07 02:06:30;;;;;;;22.88;2.30;;;5.80;99.90;;;4.34;100.00;99061.63;5032215;28;20044;-86
2024/02/07 02:17:09;;;;;;;22.90;2.83;;;5.80;99.90;;;4.28;100.00;99054.97;5008859;28;20511;-87
2024/02/07 02:19:50;;;;;;;26.27;2.08;;;5.70;99.90;;;4.27;100.00;99037.63;4905341;29;20048;-88
2024/02/07 02:29:53;;;;;;;;;;;;;;;;;;;;;
2024/02/07 02:32:22;;;;;;;28.17;2.30;;;;;;;4.31;100.00;99033.97;5071455;23;20042;-87
2024/02/07 02:37:59;;;;;;;26.15;3.47;;;5.80;99.90;;;4.31;100.00;99027.91;5007419;28;20060;-87
2024/02/07 02:45:10;;;;;;;24.58;2.47;;;5.80;99.90;;;4.29;100.00;99020.16;4987749;28;20045;-88
2024/02/07 02:51:21;;;;;;;25.17;3.33;;;;;;;4.31;100.00;99022.72;4969560;28;20046;-87
2024/02/07 02:53:59;;;;;;;18.30;1.88;;;;;;;4.30;100.00;99019.28;4968227;28;20080;-87
2024/02/07 02:56:41;;;;;;;22.27;3.70;;;;;;;4.36;100.00;99025.09;4950056;28;20071;-87
2024/02/07 03:00:02;;;;;;;;;;;;;;;;;;;;;
2024/02/07 03:06:58;;;;;;;29.48;3.65;;;5.80;99.90;;;4.35;100.00;99015.59;4985265;28;20039;-87
2024/02/07 03:09:48;;;;;;;30.33;2.50;;;;;;;4.41;100.00;99015.31;4909841;29;20035;-87
2024/02/07 03:12:38;;;;;;;23.10;2.83;;;5.90;99.90;;;4.36;100.00;99010.28;4938590;28;20059;-87
2024/02/07 03:15:05;;;;;;;25.30;2.65;;;;;;;4.36;100.00;99006.84;4901827;29;20037;-87
2024/02/07 03:18:29;;;;;;;47.88;3.72;;;5.90;99.90;;;4.37;100.00;99012.00;4895268;29;20036;-87
2024/02/07 03:21:42;;;;;;;18.88;2.47;;;5.90;99.90;;;4.37;100.00;99006.78;5022680;23;20046;-86
2024/02/07 03:24:36;;;;;;;22.38;2.67;;;5.90;99.90;;;4.40;100.00;99011.84;4945357;28;20405;-87
2024/02/07 03:27:02;;;;;;;27.80;2.63;;;5.90;99.90;;;4.38;100.00;99016.28;4955637;28;20030;-86
2024/02/07 03:29:40;;;;;;;25.00;2.90;;;5.90;99.90;;;4.46;100.00;99015.91;4955487;28;20662;-86
2024/02/07 03:32:09;;;;;;;27.45;3.10;;;;;;;4.50;100.00;99023.50;4951685;28;20039;-87
2024/02/07 03:35:48;;;;;;;30.08;3.38;;;6.00;99.90;;;4.55;100.00;99025.88;4952030;29;20039;-87
2024/02/07 03:39:00;;;;;;;19.02;2.42;;;6.00;99.90;;;4.53;100.00;99022.50;4908790;29;20096;-87
2024/02/07 03:41:41;;;;;;;37.90;3.28;;;;;;;4.56;100.00;99032.81;4953323;22;20046;-87
2024/02/07 03:44:25;;;;;;;29.95;2.90;;;6.00;99.90;;;4.60;100.00;99017.84;5004448;28;20447;-87
2024/02/07 03:47:21;;;;;;;27.13;2.55;;;;;;;4.58;100.00;99017.94;5013246;28;20038;-86
2024/02/07 03:50:14;;;;;;;;;;;;;;;;;;;;;
2024/02/07 03:53:07;;;;;;;;;;;;;;;;;;;;;
2024/02/07 03:58:58;;;;;;;27.77;3.10;;;;;;;4.59;100.00;99027.44;4991292;28;20201;-87
2024/02/07 04:01:59;;;;;;;28.10;3.05;;;6.00;99.90;;;4.53;100.00;99032.94;4976740;28;20045;-87
2024/02/07 04:05:10;;;;;;;37.72;3.63;;;6.00;99.90;;;4.54;100.00;99031.19;4969089;28;20053;-87
2024/02/07 04:08:20;;;;;;;31.52;3.05;;;6.00;99.90;;;4.57;100.00;99031.03;4974312;28;20089;-87
2024/02/07 04:11:04;;;;;;;29.73;3.85;;;;;;;4.56;100.00;99021.50;4950864;29;20074;-86
2024/02/07 05:17:39;;;;;;;34.03;4.18;;;6.10;99.90;;;4.61;92.96;99062.09;4883713;29;20128;-87
2024/02/07 05:23:51;;;;;;;35.65;3.97;;;;;;;4.64;91.67;99067.13;4900703;29;20088;-87
2024/02/07 05:26:35;;;;;;;31.60;4.03;;;;;;;4.61;92.07;99069.06;4886850;29;20044;-87
2024/02/07 05:29:15;;;;;;;27.90;2.28;;;6.20;99.90;;;4.70;91.64;99079.88;4884089;29;20188;-87
2024/02/07 05:31:50;;;;;;;45.92;4.38;;;6.20;99.90;;;4.75;91.75;99081.41;4935507;29;20042;-87
2024/02/07 05:39:02;;;;;;;37.55;4.18;;;6.10;99.90;;;4.69;93.77;99083.41;4904705;29;20075;-88
2024/02/07 05:41:43;;;;;;;32.75;3.25;;;;;;;4.62;93.84;99083.78;4997649;23;20102;-87
2024/02/07 05:47:50;;;;;;;31.17;2.97;;;6.10;99.90;;;4.51;95.40;99090.38;5060067;28;20039;-87
2024/02/07 05:51:42;;;;;;;;;;;;;;;;;;;;;
2024/02/07 05:54:29;;;;;;;21.95;2.70;;;;;;;4.25;95.84;99101.16;5051851;28;20045;-87
2024/02/07 06:01:13;;;;;;;19.05;2.42;;;5.80;99.90;;;4.01;94.08;99113.56;4952317;29;20058;-86
2024/02/07 06:04:46;;;;;;;21.73;2.80;;;;;;;4.01;93.24;99111.78;4937320;29;20039;-86
2024/02/07 06:07:48;;;;;;;15.88;2.33;;;5.60;99.90;;;3.85;94.13;99105.59;4892683;29;20032;-87
2024/02/07 06:10:29;;;;;;;9.07;1.70;;;;;;;3.77;93.89;99111.13;4893825;29;20044;-87
2024/02/07 06:13:31;;;;;;;6.68;1.15;;;;;;;3.73;93.89;99109.59;4895444;29;20482;-87
2024/02/07 06:16:51;;;;;;;15.73;2.10;;;5.50;99.90;;;3.72;93.88;99105.31;4891374;29;20810;-88
2024/02/07 06:19:20;;;;;;;9.55;1.98;;;5.40;99.90;;;3.69;93.43;99108.03;4879042;29;20040;-87
2024/02/07 06:25:40;;;;;;;10.95;1.55;;;;;;;3.63;94.38;99116.97;5032923;28;20052;-87
2024/02/07 06:35:49;;;;;;;18.77;2.45;;;5.40;99.90;;;3.71;96.09;99140.03;5034598;28;20599;-87
2024/02/07 06:38:27;;;;;;;22.15;2.13;;;5.40;99.90;;;3.70;96.34;99149.63;4986030;28;20044;-87
2024/02/07 06:41:29;;;;;;;16.50;1.52;;;;;;;3.55;97.17;99150.28;5060936;23;20509;-87
2024/02/07 06:44:22;;;;;;;7.32;0.80;;;5.20;99.90;;;3.22;98.47;99156.00;5010139;28;20046;-87
2024/02/07 06:47:12;;;;;;;;;;;;;;;;;;;;;
2024/02/07 06:49:42;;;;;;;9.95;1.75;;;;;;;3.21;100.00;99156.91;5001917;28;20053;-87
2024/02/07 06:52:23;;;;;;;19.45;2.28;;;5.00;99.90;;;3.15;100.00;99156.31;4993248;28;20026;-87
2024/02/07 06:55:01;;;;;;;11.90;1.67;;;;;;;3.08;100.00;99158.31;4980580;28;20038;-87
2024/02/07 06:57:39;;;;;;;17.85;2.58;;;;;;;3.16;100.00;99160.63;4990679;28;20551;-88
2024/02/07 07:03:52;;;;;;;15.18;1.85;;;;;;;3.18;100.00;99185.66;4971890;28;20185;-87
2024/02/07 07:06:42;;;;;;;;;;;;;;;;;;;;;
2024/02/07 07:09:10;;;;;;;15.80;1.73;;;4.90;99.90;;;3.16;100.00;99184.88;4990343;28;20050;-87
2024/02/07 07:11:51;;;;;;;19.63;2.55;;;4.90;99.90;;;3.10;100.00;99182.50;4988905;28;20609;-87
2024/02/07 07:18:52;;;;;;;5.47;0.75;;;4.80;99.90;;;2.93;98.05;99210.94;4989245;28;20504;-87
2024/02/07 07:21:41;;;;;;;14.20;1.52;;;4.70;99.90;;;3.03;97.97;99207.91;4940428;28;20171;-87
2024/02/07 07:28:19;;;;;;;13.70;1.05;;;4.70;99.90;;;3.00;97.83;99213.25;4963645;28;20607;-87
2024/02/07 07:30:48;;;;;;;9.95;1.35;;;;;;;2.98;97.99;99214.19;4909434;29;20048;-87
2024/02/07 07:33:58;;;;;;;12.20;0.68;;;;;;;2.82;97.84;99221.75;4915152;29;20095;-87
2024/02/07 07:39:31;;;;;;;8.43;0.68;;;4.50;99.90;;;2.67;96.87;99238.78;4808751;29;20094;-87
2024/02/07 07:41:58;;;;;;;6.70;1.63;;;;;;;2.57;97.22;99240.03;4994356;23;20100;-87
2024/02/07 07:50:32;;;;;;;12.18;1.50;;;;;;;2.57;97.20;99245.22;4915728;29;20096;-87
2024/02/07 07:53:12;;;;;;;9.68;1.80;;;;;;;2.51;96.63;99258.47;4923867;29;20047;-87
2024/02/07 07:59:21;;;;;;;12.05;1.33;;;4.40;99.90;;;2.63;95.05;99271.84;4920379;29;20047;-86
2024/02/07 08:02:11;;;;;;;15.05;2.15;;;4.40;99.90;;;2.70;94.86;99264.69;4899696;29;20494;-87
2024/02/07 08:08:39;;;;;;;15.48;2.35;;;4.50;99.90;;;2.85;94.42;99281.44;4865426;29;20037;-87
2024/02/07 08:11:50;;;;;;;3.63;1.10;;;;;;;2.65;93.71;99301.22;4845789;29;20143;-87
2024/02/07 08:14:48;;;;;;;10.00;1.23;;;4.40;99.90;;;2.64;94.21;99304.72;4866588;29;20101;-87
2024/02/07 08:23:50;;;;;;;15.43;1.88;;;4.40;99.90;;;2.69;93.99;99316.72;5004885;28;20115;-87
2024/02/07 08:26:31;;;;;;;;;;;4.40;99.90;;;2.67;93.56;99321.97;4995246;28;20045;-87
2024/02/07 08:29:09;;;;;;;10.18;1.48;;;;;;;2.70;92.82;99329.66;4971712;28;19917;-87
2024/02/07 08:31:51;;;;;;;8.20;0.93;;;;;;;2.73;92.87;99337.34;4993441;28;20034;-88
2024/02/07 08:35:19;;;;;;;18.02;2.67;;;4.50;99.90;;;2.78;92.28;99337.16;4994141;28;20041;-88
2024/02/07 08:38:41;;;;;;;;;;;;;;;;;;;;;
2024/02/07 08:45:22;;;;;;;;;;;;;;;;;;;;;
2024/02/07 08:47:51;;;;;;;22.85;2.78;;;;;;;2.93;91.74;99356.56;4929359;29;20043;-87
2024/02/07 08:51:00;;;;;;;23.20;2.40;;;4.60;99.90;;;2.95;91.26;99367.75;4910943;29;20036;-87
2024/02/07 08:54:11;;;;;;;12.07;1.70;;;4.60;99.90;;;2.95;90.57;99363.38;4915258;29;20114;-87
2024/02/07 08:58:00;;;;;;;23.30;2.63;;;4.70;99.90;;;3.03;91.06;99371.75;4910161;29;20501;-88
2024/02/07 09:05:42;;;;;;;8.43;0.90;;;4.50;99.90;;;2.73;88.89;99375.47;5107358;23;20050;-87
2024/02/07 09:08:40;;;;;;;8.60;1.33;;;4.50;99.90;;;2.74;88.86;99380.59;5047586;28;20566;-87
2024/02/07 09:11:42;;;;;;;;;;;;;;;;;;;;;
2024/02/07 09:15:00;;;;;;;13.68;2.25;;;4.50;99.90;;;2.78;88.97;99389.16;5038401;28;20061;-88
2024/02/07 09:18:10;;;;;;;4.25;0.98;;;4.60;99.90;;;2.77;88.98;99392.66;4984504;28;20074;-89
2024/02/07 09:21:11;;;;;;;11.38;1.38;;;;;;;2.80;88.81;99397.75;5082115;23;20013;-87
2024/02/07 09:24:04;;;;;;;12.10;1.67;;;;;;;2.84;88.78;99404.53;4972352;28;20046;-87
2024/02/07 09:31:00;;;;;;;10.48;1.10;;;4.60;99.90;;;2.96;89.34;99408.44;4911855;29;20040;-88
2024/02/07 09:34:02;;;;;;;6.43;0.93;;;4.60;99.90;;;2.98;89.12;99407.50;4797266;29;20051;-88
2024/02/07 09:36:51;;;;;;;5.82;0.52;;;4.70;99.90;;;3.00;88.28;99418.69;4784231;29;20047;-87
2024/02/07 09:39:31;;;;;;;15.35;1.58;;;;;;;3.05;87.33;99428.91;4743138;30;20044;-87
2024/02/07 09:54:51;;;;;;;11.68;1.13;;;4.40;99.90;;;2.69;87.50;99457.91;5187258;27;20447;-85
2024/02/07 09:57:52;;;;;;;;;;;;;;;;;;;;;
2024/02/07 10:00:21;;;;;;;6.35;1.15;;;;;;;2.73;87.38;99463.84;5091441;28;20050;-85
2024/02/07 10:03:18;;;;;;;6.50;0.95;;;4.50;99.90;;;2.74;87.41;99465.53;5099039;28;20032;-86
2024/02/07 10:06:11;;;;;;;13.30;1.23;;;4.50;99.90;;;2.75;87.52;99477.66;5036593;28;20045;-85
2024/02/07 10:09:30;;;;;;;18.77;1.70;;;4.50;99.90;;;2.84;87.58;99498.13;4991509;28;20037;-86
2024/02/07 10:12:20;;;;;;;9.27;1.60;;;4.60;99.90;;;2.85;87.63;99492.88;4994742;28;20038;-84
2024/02/07 10:19:19;;;;;;;12.70;1.67;;;4.50;99.90;;;2.92;86.46;99495.28;4993768;28;20141;-86
2024/02/07 10:22:48;;;;;;;12.70;1.42;;;4.70;99.90;;;2.95;83.84;99505.56;4992186;28;20034;-86
2024/02/07 10:26:13;;;;;;;;;;;4.60;99.90;;;2.80;81.89;99520.78;4976017;28;20043;-86
2024/02/07 10:28:51;;;;;;;4.72;1.15;;;;;;;2.91;82.29;99524.75;4919371;29;19922;-86
2024/02/07 10:32:09;;;;;;;18.67;1.60;;;4.70;99.90;;;2.97;81.97;99542.75;5027117;22;20053;-86
2024/02/07 10:35:32;;;;;;;;;;;4.60;99.90;;;2.82;80.77;99533.72;5013961;28;20210;-87
2024/02/07 10:38:01;;;;;;;15.98;0.98;;;;;;;2.83;81.18;99512.00;4938564;29;21241;-86
2024/02/07 10:41:43;;;;;;;8.05;0.90;;;;;;;2.90;80.98;99547.31;4967269;22;20023;-86
2024/02/07 10:45:10;;;;;;;5.57;0.95;;;4.60;99.90;;;3.15;81.30;99554.25;5013343;28;20516;-86
2024/02/07 10:51:21;;;;;;;4.20;0.88;;;4.90;99.90;;;3.23;81.63;99537.50;4857192;29;20601;-86
2024/02/07 10:54:11;;;;;;;3.92;0.70;;;;;;;3.04;80.33;99552.88;4842884;29;20042;-86
2024/02/07 10:57:54;;;;;;;;;;;;;;;;;;;;;
2024/02/07 11:00:38;;;;;;;10.93;1.90;;;4.80;99.90;;;3.04;80.28;99562.44;4787886;29;20043;-86
2024/02/07 11:03:42;;;;;;;;;;;;;;;;;;;;;
2024/02/07 11:07:02;;;;;;;5.32;1.17;;;4.80;99.90;;;3.06;80.77;99566.69;4760145;30;20036;-86
2024/02/07 11:39:00;;;;;;;10.23;1.38;;;4.70;99.90;;;2.89;82.06;99584.59;5057296;28;20056;-86
2024/02/07 11:41:29;;;;;;;12.75;1.70;;;4.60;99.90;;;2.92;82.82;99589.72;5055212;23;20048;-86
2024/02/07 11:44:35;;;;;;;;;;;;;;;;;;;;;
2024/02/07 11:47:30;;;;;;;11.85;1.40;;;;;;;2.97;83.58;99573.97;5064120;28;20032;-86
2024/02/07 11:56:23;;;;;;;6.18;0.88;;;;;;;2.47;87.10;99595.50;5084031;28;20038;-85
2024/02/07 11:59:19;;;;;;;4.38;0.75;;;4.10;99.90;;;1.85;90.43;99596.50;5025596;28;20180;-85
2024/02/07 12:08:24;;;;;;;8.90;0.60;;;;;;;2.20;95.22;99600.66;5001279;28;20069;-87
2024/02/07 12:11:31;;;;;;;1.80;0.47;;;4.00;99.90;;;2.37;92.40;99607.06;5043140;22;20044;-85
2024/02/07 12:14:00;;;;;;;7.10;1.10;;;;;;;2.50;91.43;99591.97;4986078;28;20046;-86
2024/02/07 12:16:41;;;;;;;1.30;0.38;;;4.20;99.90;;;2.38;89.99;99614.00;4981263;28;20029;-86
2024/02/07 12:19:20;;;;;;;5.20;0.68;;;;;;;2.38;89.19;99617.44;4991333;28;20038;-85
2024/02/07 12:35:04;;;;;;;6.78;1.00;;;4.20;99.90;;;2.38;86.86;99643.41;5061788;28;20057;-86
2024/02/07 12:37:41;;;;;;;7.47;1.10;;;;;;;2.31;86.94;99652.28;4996743;28;20053;-85
2024/02/07 12:40:41;;;;;;;7.00;0.80;;;4.10;99.90;;;2.33;86.49;99653.06;4995626;28;20121;-85
2024/02/07 12:43:50;;;;;;;9.20;1.15;;;4.10;99.90;;;2.23;85.95;99664.66;4951806;28;20035;-85
2024/02/07 12:47:01;;;;;;;3.42;0.80;;;4.00;99.90;;;2.10;85.76;99666.75;4905204;29;20119;-86
2024/02/07 12:49:54;;;;;;;;;;;;;;;;;;;;;
2024/02/07 12:52:23;;;;;;;12.48;1.00;;;3.90;99.90;;;2.13;86.54;99664.06;5047755;23;20047;-86
2024/02/07 12:59:15;;;;;;;;;;;;;;;;;;;;;
2024/02/07 13:01:41;;;;;;;1.75;0.32;;;3.90;99.90;;;2.31;87.09;99677.41;4944466;29;20529;-86
2024/02/07 13:04:22;;;;;;;6.85;1.13;;;;;;;2.57;87.38;99680.09;4933287;29;20130;-85
2024/02/07 13:07:05;;;;;;;3.65;1.05;;;4.10;99.90;;;2.57;86.61;99693.09;4932571;29;20055;-86
2024/02/07 13:09:39;;;;;;;5.93;0.75;;;4.20;99.90;;;2.47;84.96;99687.28;4945630;29;20131;-85
2024/02/07 13:12:41;;;;;;;5.15;0.65;;;;;;;2.50;83.08;99698.50;5047573;22;20041;-86
2024/02/07 13:15:46;;;;;;;2.97;0.20;;;4.10;99.90;;;2.29;79.25;99699.97;5024804;28;20547;-85
2024/02/07 13:18:11;;;;;;;2.92;0.38;;;4.10;99.90;;;2.26;78.87;99709.56;5023566;28;20045;-85
2024/02/07 13:21:01;;;;;;;1.65;0.30;;;;;;;2.37;79.04;99727.44;5120615;22;20023;-86
2024/02/07 13:23:34;;;;;;;2.00;0.40;;;4.10;99.90;;;2.28;78.09;99713.88;5060243;28;20049;-85
2024/02/07 13:26:14;;;;;;;1.95;0.40;;;4.00;99.90;;;2.25;78.08;99731.25;5061763;28;20016;-85
2024/02/07 13:28:40;;;;;;;0.22;0.20;;;;;;;2.15;78.55;99726.34;5044198;28;20107;-85
2024/02/07 13:34:33;;;;;;;1.77;0.40;;;4.10;99.90;;;2.49;79.07;99740.97;5070642;28;20703;-85
2024/02/07 13:37:22;;;;;;;2.08;0.40;;;4.10;99.90;;;2.48;78.22;99740.09;5053894;28;20040;-84
2024/02/07 13:39:53;;;;;;;7.60;0.75;;;;;;;2.60;78.54;99744.97;5056207;28;20025;-86
2024/02/07 13:43:00;;;;;;;1.80;0.52;;;;;;;2.79;78.08;99757.41;5066254;28;20036;-85
2024/02/07 13:45:29;;;;;;;0.97;0.60;;;;;;;2.98;76.42;99761.16;5052135;28;20090;-85
2024/02/07 13:48:22;;;;;;;2.17;0.40;;;4.50;99.90;;;2.92;75.88;99774.34;5068899;28;20040;-85
2024/02/07 13:50:48;;;;;;;4.57;0.38;;;4.60;99.90;;;2.83;75.40;99769.41;5067477;28;20536;-82
2024/02/07 13:53:28;;;;;;;2.90;0.50;;;;;;;2.74;74.89;99765.31;5075073;28;20036;-84
2024/02/07 13:58:45;;;;;;;2.85;0.30;;;4.50;99.90;;;2.69;74.21;99766.38;4998335;28;20046;-84
2024/02/07 14:01:11;;;;;;;4.45;0.90;;;4.40;99.90;;;2.51;74.86;99766.03;4951344;28;20549;-82
2024/02/07 14:03:37;;;;;;;6.35;0.70;;;4.30;99.90;;;2.45;74.26;99771.38;4950534;28;20035;-82
2024/02/07 14:06:15;;;;;;;2.30;0.45;;;;;;;2.32;74.03;99770.03;4968643;28;20528;-83
2024/02/07 14:08:41;;;;;;;0.63;0.40;;;4.20;99.90;;;2.31;74.50;99773.50;4952185;28;20121;-81
2024/02/07 14:11:21;;;;;;;3.58;0.80;;;4.10;99.90;;;2.30;74.90;99769.22;4968337;28;20078;-84
2024/02/07 14:13:58;;;;;;;2.63;0.88;;;;;;;2.18;74.96;99773.88;4969544;28;20046;-82
2024/02/07 14:16:24;;;;;;;1.48;0.35;;;;;;;2.07;75.44;99770.69;4968190;28;20075;-83
2024/02/07 14:18:50;;;;;;;4.68;0.50;;;4.00;99.90;;;2.15;75.93;99778.28;4965519;28;20535;-82
2024/02/07 14:21:41;;;;;;;1.80;0.47;;;4.00;99.90;;;2.20;76.60;99774.69;4947399;28;20043;-83
2024/02/07 14:24:19;;;;;;;2.00;0.47;;;;;;;2.21;76.46;99788.53;4935598;28;20042;-83
2024/02/07 14:26:45;;;;;;;4.68;0.70;;;4.00;99.90;;;2.35;75.23;99788.13;4947520;28;20046;-83
2024/02/07 14:29:10;;;;;;;8.10;0.65;;;4.10;99.90;;;2.38;75.97;99783.72;4948751;28;20737;-82
2024/02/07 14:31:36;;;;;;;2.80;0.80;;;4.20;99.90;;;2.43;75.84;99791.38;4970963;28;20039;-84
2024/02/07 14:34:15;;;;;;;4.75;0.60;;;;;;;2.39;75.95;99789.75;5006676;28;20120;-85
2024/02/07 14:36:41;;;;;;;3.58;0.60;;;4.10;99.90;;;2.31;76.77;99789.09;5061550;28;20036;-84
2024/02/07 14:39:22;;;;;;;1.73;0.50;;;4.10;99.90;;;2.28;77.26;99790.03;5053031;28;20529;-85
2024/02/07 14:42:11;;;;;;;2.25;0.85;;;;;;;2.30;76.36;99800.41;5076419;28;20043;-84
2024/02/07 14:44:40;;;;;;;8.32;0.90;;;;;;;2.24;76.33;99801.41;5081812;28;20405;-84
2024/02/07 14:47:29;;;;;;;2.65;0.50;;;4.00;99.90;;;2.12;76.09;99802.59;5071963;28;20582;-83
2024/02/07 14:50:00;;;;;;;2.95;0.45;;;;;;;2.08;75.40;99802.72;5054635;28;20041;-85
2024/02/07 14:52:50;;;;;;;3.85;0.82;;;3.90;99.90;;;2.01;76.29;99800.28;5055895;28;20036;-85
2024/02/07 14:55:31;;;;;;;10.02;1.23;;;3.90;99.90;;;2.07;76.49;99799.25;5062286;28;20040;-85
2024/02/07 15:01:13;;;;;;;8.05;0.90;;;;;;;2.02;77.34;99811.53;5058656;28;20057;-83
2024/02/07 15:03:52;;;;;;;1.92;0.45;;;3.80;99.90;;;1.99;77.55;99809.03;5041576;28;20025;-84
2024/02/07 15:06:32;;;;;;;9.82;0.98;;;3.80;99.90;;;2.01;77.01;99802.88;5023201;28;20025;-85
2024/02/07 15:09:07;;;;;;;4.97;0.85;;;;;;;1.95;76.64;99808.25;5039498;28;20033;-85
2024/02/07 15:11:34;;;;;;;7.57;0.85;;;;;;;1.86;76.23;99808.47;5041936;28;20044;-84
2024/02/07 15:14:01;;;;;;;2.33;0.60;;;;;;;1.84;76.26;99807.66;5039776;28;20021;-83
2024/02/07 15:16:53;;;;;;;5.63;1.00;;;3.60;99.90;;;1.75;76.29;99816.53;5042691;28;20056;-85
2024/02/07 15:19:21;;;;;;;8.52;0.52;;;;;;;1.74;76.74;99809.63;4978193;28;20433;-84
2024/02/07 15:22:10;;;;;;;8.32;1.10;;;3.60;99.90;;;1.70;77.36;99813.19;4978434;28;20046;-84
2024/02/07 15:27:51;;;;;;;3.13;0.63;;;;;;;1.63;77.23;99820.28;4900904;29;20068;-85
2024/02/07 15:30:32;;;;;;;12.40;1.40;;;3.50;99.90;;;1.69;77.51;99821.03;4899217;29;20104;-85
2024/02/07 15:33:13;;;;;;;8.20;0.80;;;;;;;1.71;77.74;99820.09;4894891;29;20059;-85
2024/02/07 15:35:51;;;;;;;5.90;0.90;;;;;;;1.59;78.29;99822.97;4904809;29;20104;-85
2024/02/07 15:38:32;;;;;;;8.20;1.50;;;;;;;1.58;78.77;99839.47;4951096;22;20060;-82
2024/02/07 15:41:04;;;;;;;5.75;0.77;;;3.40;99.90;;;1.54;79.38;99822.25;5088748;28;20082;-82
2024/02/07 15:43:30;;;;;;;8.77;1.10;;;3.40;99.90;;;1.61;79.45;99822.06;5085913;28;20023;-82
2024/02/07 15:45:58;;;;;;;12.27;1.60;;;3.40;99.90;;;1.62;79.35;99820.31;5087134;28;20485;-82
2024/02/07 15:48:24;;;;;;;10.85;1.27;;;3.40;99.90;;;1.64;79.53;99827.19;5087489;28;20042;-83
2024/02/07 15:50:52;;;;;;;10.13;1.48;;;3.40;99.90;;;1.71;79.06;99830.47;5070250;28;20032;-83
2024/02/07 15:53:20;;;;;;;7.65;1.23;;;3.40;99.90;;;1.66;79.51;99842.69;5081789;28;20020;-82
2024/02/07 15:55:46;;;;;;;8.13;0.98;;;3.50;99.90;;;1.70;79.45;99848.69;5086129;28;20040;-81
2024/02/07 15:58:13;;;;;;;8.80;1.13;;;3.40;99.90;;;1.57;79.78;99858.50;5083181;28;20040;-82
2024/02/07 16:00:38;;;;;;;9.07;1.35;;;3.40;99.90;;;1.48;80.42;99859.56;5083564;28;20031;-81
2024/02/07 16:03:04;;;;;;;12.82;1.63;;;3.30;99.90;;;1.59;80.59;99859.31;5090203;28;20505;-82
2024/02/07 16:05:39;;;;;;;14.15;1.70;;;3.30;99.90;;;1.55;80.72;99866.31;5086478;28;20020;-82
2024/02/07 16:08:07;;;;;;;10.10;1.38;;;3.20;99.90;;;1.29;81.14;99871.25;5083598;28;20446;-82
2024/02/07 16:10:41;;;;;;;8.43;1.40;;;3.10;99.90;;;1.22;81.43;99861.00;5083569;28;20098;-80
2024/02/07 16:13:06;;;;;;;17.73;2.58;;;3.10;99.90;;;1.21;81.41;99866.25;5086532;27;20031;-82
2024/02/07 16:15:32;;;;;;;7.47;1.50;;;3.00;99.90;;;1.11;82.00;99872.50;5089448;28;20024;-81
2024/02/07 16:17:58;;;;;;;16.60;2.45;;;3.00;99.90;;;1.10;81.97;99871.66;5084367;28;20559;-82
2024/02/07 16:20:28;;;;;;;16.65;2.00;;;2.90;99.90;;;1.05;82.57;99880.41;5088747;28;20031;-82
2024/02/07 16:22:57;;;;;;;13.00;2.85;;;2.90;99.90;;;1.00;82.94;99878.75;5068133;28;20033;-83
2024/02/07 16:25:23;;;;;;;14.75;3.03;;;2.90;99.90;;;0.95;83.22;99879.72;5088998;28;20024;-82
2024/02/07 16:27:50;;;;;;;10.82;2.70;;;2.80;99.90;;;0.94;83.27;99881.47;5080762;28;20035;-82
2024/02/07 16:30:16;;;;;;;16.52;3.90;;;2.80;99.90;;;0.91;82.77;99878.97;5089880;28;20024;-83
2024/02/07 16:32:51;;;;;;;15.00;2.65;;;2.70;99.90;;;0.89;82.93;99877.28;5087306;28;20118;-81
2024/02/07 16:35:17;;;;;;;8.00;1.85;;;2.70;99.90;;;0.89;81.71;99879.88;5075912;28;20035;-83
2024/02/07 16:37:43;;;;;;;7.10;1.40;;;2.70;99.90;;;0.86;81.50;99883.38;5070059;28;21047;-83
2024/02/07 16:40:09;;;;;;;7.95;1.50;;;2.70;99.90;;;0.83;80.80;99880.84;5081015;28;20098;-82
2024/02/07 16:42:40;;;;;;;3.65;0.70;;;2.70;99.90;;;0.80;80.56;99883.53;5083232;27;20027;-81
2024/02/07 16:45:06;;;;;;;6.97;1.00;;;2.60;99.90;;;0.75;79.93;99885.31;5082364;28;20118;-82
2024/02/07 16:47:34;;;;;;;3.72;0.75;;;2.60;99.90;;;0.70;79.49;99892.34;5086733;28;20043;-81
2024/02/07 16:50:00;;;;;;;6.72;0.90;;;2.10;99.90;;;0.62;79.02;99895.06;5079300;28;20033;-82
2024/02/07 16:52:31;;;;;;;8.18;1.15;;;2.40;99.90;;;0.52;79.03;99891.81;5089667;28;20080;-82
2024/02/07 16:54:59;;;;;;;4.05;0.80;;;2.40;99.90;;;0.50;78.12;99898.78;5073224;28;20028;-82
2024/02/07 16:57:24;;;;;;;2.95;0.68;;;2.40;99.90;;;0.42;77.63;99907.56;5087587;28;20103;-82
2024/02/07 16:59:50;;;;;;;8.30;0.98;;;2.30;99.90;;;0.40;77.79;99897.22;5066782;28;20074;-82
2024/02/07 17:02:27;;;;;;;4.47;0.98;;;2.20;99.90;;;0.35;77.76;99902.50;5083680;27;20031;-83
2024/02/07 17:04:53;;;;;;;5.85;0.50;;;2.20;99.90;;;0.32;77.60;99904.28;5082164;28;20019;-82
2024/02/07 17:07:18;;;;;;;7.03;0.70;;;2.20;99.90;;;0.26;77.21;99907.84;5083057;28;20028;-82
2024/02/07 17:09:44;;;;;;;8.38;0.93;;;2.10;99.90;;;0.25;77.42;99908.69;5082733;28;20070;-83
2024/02/07 17:12:18;;;;;;;4.85;1.48;;;2.10;99.90;;;0.31;77.30;99908.59;5081343;28;20059;-82
2024/02/07 17:14:45;;;;;;;7.32;1.80;;;2.10;99.90;;;0.39;77.00;99917.09;5072553;28;20035;-82
2024/02/07 17:17:11;;;;;;;12.55;2.10;;;2.10;99.90;;;0.51;77.54;99922.94;5082482;28;20043;-82
2024/02/07 17:19:37;;;;;;;10.43;2.28;;;2.20;99.90;;;0.61;77.88;99927.91;5069545;28;20056;-82
2024/02/07 17:22:11;;;;;;;4.15;1.30;;;2.20;99.90;;;0.69;78.50;99938.16;5082945;28;20033;-82
2024/02/07 17:24:38;;;;;;;11.77;2.30;;;2.20;99.90;;;0.73;78.24;99929.41;5086575;27;20401;-82
2024/02/07 17:27:04;;;;;;;17.85;1.60;;;2.30;99.90;;;0.80;79.13;99940.53;5090832;28;20031;-83
2024/02/07 17:29:35;;;;;;;9.65;1.70;;;2.30;99.90;;;0.84;78.88;99941.31;5080842;28;20036;-82
2024/02/07 17:32:02;;;;;;;11.93;2.63;;;2.30;99.90;;;0.87;79.51;99949.03;5083170;28;20095;-82